Time;durP1;ratioP1;P1;durP2;ratioP2;P2;SDS_P1;SDS_P2;PMS_P1;PMS_P2;Temp;Humidity;BMP_temperature;BMP_pressure;BME280_temperature;BME280_humidity;BME280_pressure;Samples;Min_cycle;Max_cycle;Signal;HPM_P1;HPM_P2
2022/03/23 00:00:13;;;;;;;0.43;0.43;;;;;;;;;;4972316;28;20042;-92
2022/03/23 00:02:39;;;;;;;0.55;0.55;;;;;;;;;;4969299;28;20039;-91
2022/03/23 00:05:06;;;;;;;0.60;0.60;;;;;;;;;;4975654;28;20062;-90
2022/03/23 00:07:34;;;;;;;0.22;0.22;;;;;;;;;;4984648;28;20045;-91
2022/03/23 00:10:01;;;;;;;0.40;0.40;;;;;;;;;;4987135;28;20129;-91
2022/03/23 00:12:27;;;;;;;0.68;0.68;;;;;;;;;;4981316;28;20054;-90
2022/03/23 00:14:53;;;;;;;1.63;1.15;;;;;;;;;;4986940;28;20638;-91
2022/03/23 00:17:20;;;;;;;2.92;1.55;;;;;;;;;;4967570;28;20090;-91
2022/03/23 00:19:46;;;;;;;1.33;1.20;;;;;;;;;;4962061;28;20475;-91
2022/03/23 00:22:14;;;;;;;0.30;0.30;;;;;;;;;;4967860;28;20043;-90
2022/03/23 00:24:40;;;;;;;0.50;0.50;;;;;;;;;;4970665;28;20034;-90
2022/03/23 00:27:06;;;;;;;2.33;2.05;;;;;;;;;;4968272;28;20086;-91
2022/03/23 00:29:32;;;;;;;0.40;0.40;;;;;;;;;;4982743;28;20165;-91
2022/03/23 00:32:05;;;;;;;0.40;0.40;;;;;;;;;;5002639;28;20088;-90
2022/03/23 00:34:31;;;;;;;2.20;1.38;;;;;;;;;;4982754;28;20053;-91
2022/03/23 00:36:57;;;;;;;0.40;0.40;;;;;;;;;;4985588;28;20105;-89
2022/03/23 00:39:23;;;;;;;1.00;0.73;;;;;;;;;;4985798;28;20101;-91
2022/03/23 00:41:50;;;;;;;2.33;1.45;;;;;;;;;;4986742;28;20407;-92
2022/03/23 00:44:16;;;;;;;0.30;0.30;;;;;;;;;;4987160;28;20101;-92
2022/03/23 00:46:42;;;;;;;1.13;0.98;;;;;;;;;;4986637;28;20034;-92
2022/03/23 00:49:09;;;;;;;0.50;0.50;;;;;;;;;;4986815;28;20042;-92
2022/03/23 00:51:35;;;;;;;0.73;0.73;;;;;;;;;;4983551;28;20129;-91
2022/03/23 00:54:02;;;;;;;0.22;0.22;;;;;;;;;;4986537;28;20042;-92
2022/03/23 00:56:31;;;;;;;1.88;1.75;;;;;;;;;;4985313;28;20093;-91
2022/03/23 00:58:57;;;;;;;0.50;0.50;;;;;;;;;;4986153;28;20042;-90
2022/03/23 01:01:23;;;;;;;1.10;0.95;;;;;;;;;;4986023;28;20038;-92
2022/03/23 01:03:49;;;;;;;0.65;0.65;;;;;;;;;;4975067;28;20039;-92
2022/03/23 01:06:15;;;;;;;25.73;3.33;;;;;;;;;;4982782;28;20049;-91
2022/03/23 01:08:41;;;;;;;2.03;1.27;;;;;;;;;;4985951;28;20050;-92
2022/03/23 01:11:07;;;;;;;0.22;0.22;;;;;;;;;;4982478;28;20574;-92
2022/03/23 01:13:33;;;;;;;0.45;0.43;;;;;;;;;;4985378;28;20097;-91
2022/03/23 01:15:59;;;;;;;4.53;4.22;;;;;;;;;;4982228;28;20070;-92
2022/03/23 01:18:25;;;;;;;0.95;0.95;;;;;;;;;;4985843;28;20042;-89
2022/03/23 01:20:52;;;;;;;11.45;5.60;;;;;;;;;;4982746;28;20045;-92
2022/03/23 01:23:18;;;;;;;0.50;0.50;;;;;;;;;;4982560;28;20066;-91
2022/03/23 01:25:45;;;;;;;3.10;1.80;;;;;;;;;;4984899;28;20038;-91
2022/03/23 01:28:11;;;;;;;0.65;0.65;;;;;;;;;;4984638;28;20108;-90
2022/03/23 01:30:37;;;;;;;2.17;1.02;;;;;;;;;;4983459;28;20399;-91
2022/03/23 01:33:03;;;;;;;1.75;1.33;;;;;;;;;;4984322;28;20057;-92
2022/03/23 01:35:29;;;;;;;1.40;1.30;;;;;;;;;;4985429;28;20106;-90
2022/03/23 01:37:55;;;;;;;0.30;0.30;;;;;;;;;;4981427;28;20479;-91
2022/03/23 01:40:22;;;;;;;4.68;2.75;;;;;;;;;;4981248;28;20042;-92
2022/03/23 01:42:48;;;;;;;1.55;1.33;;;;;;;;;;4982757;28;20043;-91
2022/03/23 01:45:14;;;;;;;0.52;0.47;;;;;;;;;;4984992;28;20054;-92
2022/03/23 01:47:41;;;;;;;1.20;0.75;;;;;;;;;;4984110;28;20053;-90
2022/03/23 01:50:08;;;;;;;0.30;0.30;;;;;;;;;;4984976;28;20056;-91
2022/03/23 01:52:34;;;;;;;0.32;0.32;;;;;;;;;;4968219;28;20069;-92
2022/03/23 01:55:01;;;;;;;0.55;0.55;;;;;;;;;;4984630;28;20106;-91
2022/03/23 01:57:28;;;;;;;0.30;0.30;;;;;;;;;;4961645;28;20039;-91
2022/03/23 01:59:54;;;;;;;0.88;0.88;;;;;;;;;;4949428;28;20078;-91
2022/03/23 02:02:21;;;;;;;0.45;0.45;;;;;;;;;;4980726;28;20507;-91
2022/03/23 02:04:47;;;;;;;0.93;0.85;;;;;;;;;;4984666;28;20427;-92
2022/03/23 02:07:14;;;;;;;2.45;2.25;;;;;;;;;;4984422;28;20109;-91
2022/03/23 02:09:40;;;;;;;0.60;0.60;;;;;;;;;;4981201;28;20110;-91
2022/03/23 02:12:11;;;;;;;0.85;0.57;;;;;;;;;;4984507;28;20042;-91
2022/03/23 02:14:37;;;;;;;1.63;1.50;;;;;;;;;;4984745;28;20042;-92
2022/03/23 02:17:05;;;;;;;0.38;0.38;;;;;;;;;;4979291;28;20078;-91
2022/03/23 02:19:31;;;;;;;3.63;1.90;;;;;;;;;;4984905;28;20046;-91
2022/03/23 02:21:57;;;;;;;1.30;0.95;;;;;;;;;;4981474;28;20100;-92
2022/03/23 02:24:31;;;;;;;1.73;1.63;;;;;;;;;;4980980;28;20054;-92
2022/03/23 02:26:58;;;;;;;0.40;0.40;;;;;;;;;;4984258;28;20046;-92
2022/03/23 02:29:26;;;;;;;0.30;0.30;;;;;;;;;;4984733;28;20118;-91
2022/03/23 02:31:52;;;;;;;2.05;1.92;;;;;;;;;;4984463;28;20513;-91
2022/03/23 02:34:18;;;;;;;1.05;0.85;;;;;;;;;;4980671;28;20483;-91
2022/03/23 02:36:44;;;;;;;0.60;0.60;;;;;;;;;;4980212;28;20342;-91
2022/03/23 02:39:10;;;;;;;3.33;3.03;;;;;;;;;;4984187;28;20064;-91
2022/03/23 02:41:36;;;;;;;1.08;1.05;;;;;;;;;;4980573;28;20039;-91
2022/03/23 02:44:03;;;;;;;1.55;1.17;;;;;;;;;;4984175;28;20050;-91
2022/03/23 02:46:35;;;;;;;3.72;2.45;;;;;;;;;;4984239;28;20150;-91
2022/03/23 02:49:02;;;;;;;1.58;1.17;;;;;;;;;;4968525;28;20050;-89
2022/03/23 02:51:28;;;;;;;4.28;1.73;;;;;;;;;;4973088;28;20050;-91
2022/03/23 03:02:23;;;;;;;0.45;0.45;;;;;;;;;;4981811;28;20057;-91
2022/03/23 03:04:50;;;;;;;2.25;1.00;;;;;;;;;;4953189;28;20042;-91
2022/03/23 03:07:16;;;;;;;0.85;0.65;;;;;;;;;;5003383;28;20042;-90
2022/03/23 03:09:42;;;;;;;0.50;0.50;;;;;;;;;;4968322;28;20093;-90
2022/03/23 03:12:11;;;;;;;0.70;0.70;;;;;;;;;;4981005;28;20042;-91
2022/03/23 03:14:37;;;;;;;0.65;0.57;;;;;;;;;;4987775;28;20566;-91
2022/03/23 03:17:03;;;;;;;1.75;1.55;;;;;;;;;;4987138;28;20054;-91
2022/03/23 03:19:29;;;;;;;0.30;0.30;;;;;;;;;;4987341;28;20089;-91
2022/03/23 03:21:57;;;;;;;5.78;2.35;;;;;;;;;;4972098;28;20045;-91
2022/03/23 03:24:23;;;;;;;2.15;1.60;;;;;;;;;;4970917;28;20046;-91
2022/03/23 03:26:50;;;;;;;3.60;1.95;;;;;;;;;;4975745;28;20051;-92
2022/03/23 03:29:16;;;;;;;1.42;1.30;;;;;;;;;;4983118;28;20039;-91
2022/03/23 03:31:43;;;;;;;1.10;1.00;;;;;;;;;;4986680;28;20045;-91
2022/03/23 03:34:09;;;;;;;2.15;1.65;;;;;;;;;;4970099;28;20093;-91
2022/03/23 03:36:36;;;;;;;1.13;1.05;;;;;;;;;;4969406;28;20045;-91
2022/03/23 03:39:03;;;;;;;1.55;1.27;;;;;;;;;;4970037;28;20097;-92
2022/03/23 03:41:29;;;;;;;1.30;1.20;;;;;;;;;;4970360;28;20035;-91
2022/03/23 03:43:56;;;;;;;1.45;1.20;;;;;;;;;;4967526;28;20046;-90
2022/03/23 03:46:22;;;;;;;1.50;1.40;;;;;;;;;;4964315;28;20038;-91
2022/03/23 03:48:48;;;;;;;5.63;2.63;;;;;;;;;;4970668;28;20042;-91
2022/03/23 03:51:14;;;;;;;0.90;0.85;;;;;;;;;;4982920;28;20086;-88
2022/03/23 03:53:40;;;;;;;0.73;0.73;;;;;;;;;;4963675;28;20051;-91
2022/03/23 03:56:07;;;;;;;3.17;2.30;;;;;;;;;;4986038;28;20095;-91
2022/03/23 03:58:33;;;;;;;0.82;0.82;;;;;;;;;;4985587;28;20518;-90
2022/03/23 04:00:59;;;;;;;1.42;1.33;;;;;;;;;;4983424;28;20042;-90
2022/03/23 04:03:25;;;;;;;0.93;0.80;;;;;;;;;;4993608;28;20073;-91
2022/03/23 04:05:51;;;;;;;3.92;1.55;;;;;;;;;;4963374;28;20114;-91
2022/03/23 04:08:18;;;;;;;0.40;0.40;;;;;;;;;;4977998;28;20133;-91
2022/03/23 04:10:44;;;;;;;0.28;0.28;;;;;;;;;;4983774;28;20104;-91
2022/03/23 04:13:10;;;;;;;1.73;1.63;;;;;;;;;;4980024;28;20038;-91
2022/03/23 04:15:36;;;;;;;0.30;0.30;;;;;;;;;;4982884;28;20066;-91
2022/03/23 04:18:02;;;;;;;1.08;1.02;;;;;;;;;;4983111;28;20050;-91
2022/03/23 04:20:29;;;;;;;0.68;0.68;;;;;;;;;;4986695;28;20042;-91
2022/03/23 04:22:55;;;;;;;0.98;0.93;;;;;;;;;;4983406;28;20107;-91
2022/03/23 04:25:22;;;;;;;4.57;1.92;;;;;;;;;;4986222;28;20074;-91
2022/03/23 04:27:51;;;;;;;1.50;1.05;;;;;;;;;;4986673;28;20113;-90
2022/03/23 04:30:18;;;;;;;1.63;1.23;;;;;;;;;;4960924;28;20046;-91
2022/03/23 04:32:49;;;;;;;3.55;1.38;;;;;;;;;;4986242;28;20076;-90
2022/03/23 04:35:15;;;;;;;2.58;1.90;;;;;;;;;;4984615;28;20058;-86
2022/03/23 04:37:41;;;;;;;0.52;0.50;;;;;;;;;;4982142;28;20508;-91
2022/03/23 04:40:10;;;;;;;3.92;1.70;;;;;;;;;;4981794;28;20073;-91
2022/03/23 04:42:37;;;;;;;0.30;0.30;;;;;;;;;;4985562;28;20042;-91
2022/03/23 04:45:03;;;;;;;0.65;0.65;;;;;;;;;;4985330;28;20066;-90
2022/03/23 04:47:29;;;;;;;1.00;0.93;;;;;;;;;;4981780;28;20046;-91
2022/03/23 04:49:55;;;;;;;0.45;0.45;;;;;;;;;;4985435;28;20136;-90
2022/03/23 04:52:22;;;;;;;0.45;0.45;;;;;;;;;;4965568;28;20042;-91
2022/03/23 04:54:48;;;;;;;1.13;0.93;;;;;;;;;;4964903;28;20130;-91
2022/03/23 04:57:14;;;;;;;1.63;1.45;;;;;;;;;;4965217;28;20077;-88
2022/03/23 04:59:40;;;;;;;0.40;0.40;;;;;;;;;;4969798;28;20038;-91
2022/03/23 05:02:06;;;;;;;0.63;0.63;;;;;;;;;;4978377;28;20038;-91
2022/03/23 05:04:35;;;;;;;1.23;1.13;;;;;;;;;;4981328;28;20043;-90
2022/03/23 05:07:01;;;;;;;0.68;0.68;;;;;;;;;;4985102;28;20070;-91
2022/03/23 05:09:27;;;;;;;0.70;0.70;;;;;;;;;;4984584;28;20104;-91
2022/03/23 05:11:54;;;;;;;2.00;1.30;;;;;;;;;;4985239;28;20046;-91
2022/03/23 05:14:20;;;;;;;0.30;0.30;;;;;;;;;;4974840;28;20129;-90
2022/03/23 05:16:46;;;;;;;0.45;0.45;;;;;;;;;;4982145;28;20116;-90
2022/03/23 05:19:13;;;;;;;23.45;2.75;;;;;;;;;;4982592;28;20489;-91
2022/03/23 05:21:39;;;;;;;2.15;2.05;;;;;;;;;;4981932;28;20062;-90
2022/03/23 05:24:05;;;;;;;1.50;1.23;;;;;;;;;;4970597;28;20096;-90
2022/03/23 05:26:31;;;;;;;1.05;0.95;;;;;;;;;;4972864;28;20066;-90
2022/03/23 05:28:57;;;;;;;0.40;0.40;;;;;;;;;;4982680;28;20043;-91
2022/03/23 05:31:23;;;;;;;1.55;1.10;;;;;;;;;;4986448;28;20045;-91
2022/03/23 05:33:49;;;;;;;1.13;0.98;;;;;;;;;;4977075;28;20053;-91
2022/03/23 05:36:16;;;;;;;0.40;0.40;;;;;;;;;;4985824;28;20066;-90
2022/03/23 05:38:42;;;;;;;5.05;2.17;;;;;;;;;;4983545;28;20204;-89
2022/03/23 05:41:08;;;;;;;0.77;0.73;;;;;;;;;;4983450;28;20057;-90
2022/03/23 05:43:34;;;;;;;2.63;2.33;;;;;;;;;;4952700;28;20042;-91
2022/03/23 05:46:06;;;;;;;0.73;0.70;;;;;;;;;;4976217;28;20042;-90
2022/03/23 05:48:32;;;;;;;2.60;1.55;;;;;;;;;;4984948;28;20073;-91
2022/03/23 05:50:58;;;;;;;1.48;1.38;;;;;;;;;;4984457;28;20064;-92
2022/03/23 05:53:24;;;;;;;1.75;1.58;;;;;;;;;;4985526;28;20050;-91
2022/03/23 05:55:52;;;;;;;1.80;1.42;;;;;;;;;;4983123;28;20042;-91
2022/03/23 05:58:18;;;;;;;0.30;0.30;;;;;;;;;;4983614;28;20112;-90
2022/03/23 06:00:44;;;;;;;2.25;1.15;;;;;;;;;;4984432;28;20554;-89
2022/03/23 06:03:10;;;;;;;2.17;1.92;;;;;;;;;;4984179;28;20090;-91
2022/03/23 06:05:37;;;;;;;5.18;3.70;;;;;;;;;;4985991;28;20042;-88
2022/03/23 06:08:03;;;;;;;0.40;0.40;;;;;;;;;;4985550;28;20058;-90
2022/03/23 06:10:29;;;;;;;2.75;2.28;;;;;;;;;;4978916;28;20046;-90
2022/03/23 06:12:55;;;;;;;3.00;1.92;;;;;;;;;;4968855;28;20069;-90
2022/03/23 06:15:22;;;;;;;1.17;0.90;;;;;;;;;;4969214;28;20046;-91
2022/03/23 06:17:48;;;;;;;0.90;0.85;;;;;;;;;;4982021;28;20043;-90
2022/03/23 06:20:14;;;;;;;0.57;0.57;;;;;;;;;;4985001;28;20046;-91
2022/03/23 06:22:40;;;;;;;0.68;0.60;;;;;;;;;;4962748;28;20046;-90
2022/03/23 06:25:07;;;;;;;0.30;0.30;;;;;;;;;;4985823;28;20034;-91
2022/03/23 06:27:34;;;;;;;1.15;1.05;;;;;;;;;;4985537;28;20053;-90
2022/03/23 06:30:00;;;;;;;1.70;1.30;;;;;;;;;;4984032;28;20054;-91
2022/03/23 06:32:26;;;;;;;1.63;0.88;;;;;;;;;;4984625;28;20068;-90
2022/03/23 06:34:52;;;;;;;0.40;0.40;;;;;;;;;;4980310;28;20055;-91
2022/03/23 06:37:18;;;;;;;0.40;0.40;;;;;;;;;;4980311;28;20043;-90
2022/03/23 06:39:44;;;;;;;0.40;0.40;;;;;;;;;;4980847;28;20078;-91
2022/03/23 06:42:11;;;;;;;0.40;0.40;;;;;;;;;;4984208;28;20061;-89
2022/03/23 06:44:38;;;;;;;0.30;0.30;;;;;;;;;;4981086;28;20045;-92
2022/03/23 06:47:04;;;;;;;0.32;0.32;;;;;;;;;;4981376;28;20046;-91
2022/03/23 06:49:30;;;;;;;0.45;0.45;;;;;;;;;;4971621;28;20042;-92
2022/03/23 06:51:57;;;;;;;0.45;0.45;;;;;;;;;;4984112;28;20057;-91
2022/03/23 06:54:23;;;;;;;0.32;0.32;;;;;;;;;;4965015;28;20039;-91
2022/03/23 06:56:51;;;;;;;7.72;2.80;;;;;;;;;;4972077;28;20121;-91
2022/03/23 06:59:18;;;;;;;3.95;2.28;;;;;;;;;;4983679;28;20038;-90
2022/03/23 07:01:44;;;;;;;6.55;3.70;;;;;;;;;;4971419;28;20071;-91
2022/03/23 07:04:10;;;;;;;0.75;0.65;;;;;;;;;;4983384;28;20039;-91
2022/03/23 07:06:36;;;;;;;3.72;3.03;;;;;;;;;;4981003;28;20463;-91
2022/03/23 07:11:47;;;;;;;10.15;3.58;;;;;;;;;;4973100;28;20482;-90
2022/03/23 07:14:13;;;;;;;4.43;3.20;;;;;;;;;;4982348;28;20073;-90
2022/03/23 07:16:39;;;;;;;0.40;0.40;;;;;;;;;;4983024;28;20038;-90
2022/03/23 07:19:05;;;;;;;0.40;0.40;;;;;;;;;;4971481;28;20035;-91
2022/03/23 07:21:31;;;;;;;2.35;1.40;;;;;;;;;;4963406;28;20034;-90
2022/03/23 07:23:57;;;;;;;1.60;1.50;;;;;;;;;;4963083;28;20042;-90
2022/03/23 07:26:23;;;;;;;0.63;0.63;;;;;;;;;;4963606;28;20043;-89
2022/03/23 07:28:49;;;;;;;2.38;1.67;;;;;;;;;;4961970;28;20066;-89
2022/03/23 07:31:15;;;;;;;0.45;0.45;;;;;;;;;;4958500;28;20042;-90
2022/03/23 07:33:41;;;;;;;11.25;4.75;;;;;;;;;;4980109;28;20042;-90
2022/03/23 07:36:11;;;;;;;0.90;0.82;;;;;;;;;;4963109;28;20053;-90
2022/03/23 07:38:37;;;;;;;4.43;1.90;;;;;;;;;;4980397;28;20053;-91
2022/03/23 07:41:03;;;;;;;0.68;0.68;;;;;;;;;;4980274;28;20034;-89
2022/03/23 07:43:29;;;;;;;9.73;4.38;;;;;;;;;;4967541;28;20411;-91
2022/03/23 07:45:55;;;;;;;0.73;0.73;;;;;;;;;;4952410;28;20081;-91
2022/03/23 07:48:22;;;;;;;1.10;0.93;;;;;;;;;;4984400;28;20100;-90
2022/03/23 07:50:48;;;;;;;1.38;0.98;;;;;;;;;;4967679;28;20043;-91
2022/03/23 07:53:14;;;;;;;0.93;0.90;;;;;;;;;;4999781;28;20050;-91
2022/03/23 07:55:40;;;;;;;2.15;1.58;;;;;;;;;;4984954;28;20168;-91
2022/03/23 07:58:11;;;;;;;1.88;1.70;;;;;;;;;;4959305;28;20066;-91
2022/03/23 08:00:38;;;;;;;5.53;3.88;;;;;;;;;;4983360;28;20057;-91
2022/03/23 08:03:12;;;;;;;6.50;3.58;;;;;;;;;;4978946;28;20135;-90
2022/03/23 08:05:39;;;;;;;5.47;3.50;;;;;;;;;;4974249;28;20045;-90
2022/03/23 08:08:19;;;;;;;2.25;1.75;;;;;;;;;;4985219;28;20097;-91
2022/03/23 08:10:45;;;;;;;5.68;3.17;;;;;;;;;;4983224;28;20049;-91
2022/03/23 08:13:12;;;;;;;2.28;1.77;;;;;;;;;;4985337;28;20082;-91
2022/03/23 08:15:44;;;;;;;7.53;2.83;;;;;;;;;;4979350;28;20043;-91
2022/03/23 08:18:11;;;;;;;4.75;2.90;;;;;;;;;;4966790;28;20507;-90
2022/03/23 08:20:37;;;;;;;15.45;2.42;;;;;;;;;;4982719;28;20065;-89
2022/03/23 08:23:04;;;;;;;14.52;7.40;;;;;;;;;;4985635;28;20038;-91
2022/03/23 08:25:30;;;;;;;3.90;1.60;;;;;;;;;;4981322;28;20493;-91
2022/03/23 08:27:56;;;;;;;4.40;2.63;;;;;;;;;;4982950;28;20043;-91
2022/03/23 08:30:24;;;;;;;6.45;2.75;;;;;;;;;;4963380;28;20092;-91
2022/03/23 08:32:50;;;;;;;8.48;2.38;;;;;;;;;;4985625;28;20121;-90
2022/03/23 08:35:16;;;;;;;1.98;1.67;;;;;;;;;;4967050;28;20078;-91
2022/03/23 08:37:42;;;;;;;9.25;4.38;;;;;;;;;;4963316;28;20039;-91
2022/03/23 08:40:08;;;;;;;6.75;2.80;;;;;;;;;;4984281;28;20121;-91
2022/03/23 08:42:34;;;;;;;5.03;3.55;;;;;;;;;;4958133;28;20049;-91
2022/03/23 08:45:00;;;;;;;5.93;2.45;;;;;;;;;;4986192;28;20038;-91
2022/03/23 08:47:27;;;;;;;3.10;2.33;;;;;;;;;;4982869;28;20231;-91
2022/03/23 08:49:55;;;;;;;9.57;4.18;;;;;;;;;;4990933;28;20125;-90
2022/03/23 08:52:22;;;;;;;5.20;3.53;;;;;;;;;;4970685;28;20566;-92
2022/03/23 08:54:48;;;;;;;6.63;4.45;;;;;;;;;;4973248;28;20046;-91
2022/03/23 08:57:15;;;;;;;2.53;1.95;;;;;;;;;;4982049;28;20098;-91
2022/03/23 08:59:41;;;;;;;7.80;4.50;;;;;;;;;;4986265;28;20054;-91
2022/03/23 09:02:07;;;;;;;5.72;3.38;;;;;;;;;;4984757;28;20047;-89
2022/03/23 09:04:33;;;;;;;4.28;2.97;;;;;;;;;;4985517;28;20049;-91
2022/03/23 09:06:59;;;;;;;0.57;0.57;;;;;;;;;;4979152;28;20035;-92
2022/03/23 09:09:25;;;;;;;4.82;2.85;;;;;;;;;;4985633;28;20102;-92
2022/03/23 09:11:52;;;;;;;4.32;3.08;;;;;;;;;;4985336;28;20046;-96
2022/03/23 09:14:22;;;;;;;7.00;3.65;;;;;;;;;;4960785;28;20034;-87
2022/03/23 09:16:48;;;;;;;7.05;3.67;;;;;;;;;;4982916;28;20042;-90
2022/03/23 09:19:19;;;;;;;6.95;2.92;;;;;;;;;;4962192;28;20050;-89
2022/03/23 09:21:46;;;;;;;4.97;2.40;;;;;;;;;;4949563;28;20062;-89
2022/03/23 09:24:12;;;;;;;2.97;2.25;;;;;;;;;;4974631;28;20053;-90
2022/03/23 09:26:39;;;;;;;7.82;3.63;;;;;;;;;;4964423;28;20090;-90
2022/03/23 09:29:06;;;;;;;4.20;2.53;;;;;;;;;;4967859;28;20069;-90
2022/03/23 09:31:32;;;;;;;26.92;4.40;;;;;;;;;;4982645;28;20046;-89
2022/03/23 09:33:58;;;;;;;9.60;3.95;;;;;;;;;;4983513;28;20042;-89
2022/03/23 09:39:09;;;;;;;11.18;4.78;;;;;;;;;;4983727;28;20085;-90
2022/03/23 09:41:35;;;;;;;8.15;4.03;;;;;;;;;;4980679;28;20050;-90
2022/03/23 09:44:01;;;;;;;16.08;6.57;;;;;;;;;;4983320;28;20050;-91
2022/03/23 09:46:27;;;;;;;5.30;2.17;;;;;;;;;;4987273;28;20104;-91
2022/03/23 09:48:53;;;;;;;6.50;3.15;;;;;;;;;;4971730;28;20092;-90
2022/03/23 09:51:21;;;;;;;8.50;5.10;;;;;;;;;;4984332;28;20038;-88
2022/03/23 09:53:47;;;;;;;5.35;2.40;;;;;;;;;;4983948;28;20035;-90
2022/03/23 09:56:14;;;;;;;8.45;4.00;;;;;;;;;;4977789;28;20046;-90
2022/03/23 09:58:42;;;;;;;7.20;2.63;;;;;;;;;;4954984;28;20074;-91
2022/03/23 10:01:21;;;;;;;10.23;4.40;;;;;;;;;;4971269;28;20041;-91
2022/03/23 10:04:07;;;;;;;7.75;3.90;;;;;;;;;;4967959;28;20118;-90
2022/03/23 10:06:55;;;;;;;9.82;5.43;;;;;;;;;;4967577;28;20112;-89
2022/03/23 10:09:27;;;;;;;5.70;3.22;;;;;;;;;;4964399;28;20082;-90
2022/03/23 10:12:12;;;;;;;4.90;3.45;;;;;;;;;;4958396;28;20125;-90
2022/03/23 10:14:53;;;;;;;5.82;3.03;;;;;;;;;;4980377;28;20066;-88
2022/03/23 10:17:25;;;;;;;23.90;5.75;;;;;;;;;;4970463;28;20047;-91
2022/03/23 10:19:51;;;;;;;6.00;2.85;;;;;;;;;;4979927;28;20042;-90
2022/03/23 10:22:17;;;;;;;2.63;1.77;;;;;;;;;;4983919;28;20077;-90
2022/03/23 10:24:43;;;;;;;8.68;4.70;;;;;;;;;;4984706;28;20034;-89
2022/03/23 10:27:14;;;;;;;2.22;1.17;;;;;;;;;;4979650;28;20134;-90
2022/03/23 10:29:45;;;;;;;11.55;4.05;;;;;;;;;;4976690;28;20046;-90
2022/03/23 10:32:13;;;;;;;7.53;3.42;;;;;;;;;;4966880;28;20046;-90
2022/03/23 10:34:57;;;;;;;3.33;2.55;;;;;;;;;;4964276;28;20418;-91
2022/03/23 10:37:27;;;;;;;4.65;2.70;;;;;;;;;;4958453;28;20045;-90
2022/03/23 10:39:54;;;;;;;6.68;3.97;;;;;;;;;;4982798;28;20035;-90
2022/03/23 10:42:22;;;;;;;3.10;2.33;;;;;;;;;;4982849;28;20499;-91
2022/03/23 10:44:49;;;;;;;3.33;2.47;;;;;;;;;;4980461;28;20197;-91
2022/03/23 10:47:28;;;;;;;2.80;2.15;;;;;;;;;;4980186;28;20070;-91
2022/03/23 10:49:54;;;;;;;9.30;5.28;;;;;;;;;;4983540;28;20092;-90
2022/03/23 10:52:20;;;;;;;8.30;4.50;;;;;;;;;;4982289;28;20082;-89
2022/03/23 10:54:55;;;;;;;8.95;3.80;;;;;;;;;;4981823;28;20582;-87
2022/03/23 10:57:21;;;;;;;3.00;2.13;;;;;;;;;;4982329;28;20069;-88
2022/03/23 10:59:47;;;;;;;5.20;2.95;;;;;;;;;;4980818;28;20058;-90
2022/03/23 11:02:14;;;;;;;1.80;1.55;;;;;;;;;;4964911;28;20046;-90
2022/03/23 11:04:43;;;;;;;6.20;3.55;;;;;;;;;;4975440;28;20054;-91
2022/03/23 11:07:22;;;;;;;5.75;3.58;;;;;;;;;;4982332;28;20046;-90
2022/03/23 11:18:12;;;;;;;3.33;2.13;;;;;;;;;;4976920;28;20133;-89
2022/03/23 11:20:55;;;;;;;7.85;3.05;;;;;;;;;;4985085;28;20523;-90
2022/03/23 11:23:23;;;;;;;2.58;1.67;;;;;;;;;;4986862;28;20092;-90
2022/03/23 11:25:50;;;;;;;3.85;2.15;;;;;;;;;;4970339;28;20038;-90
2022/03/23 11:28:16;;;;;;;2.40;1.90;;;;;;;;;;4957113;28;20042;-90
2022/03/23 11:30:46;;;;;;;1.27;1.17;;;;;;;;;;4986812;28;20057;-90
2022/03/23 11:33:14;;;;;;;3.83;1.38;;;;;;;;;;4986330;28;20129;-90
2022/03/23 11:35:49;;;;;;;6.30;3.38;;;;;;;;;;4986753;28;20049;-90
2022/03/23 11:38:17;;;;;;;3.90;2.55;;;;;;;;;;4978828;28;20050;-91
2022/03/23 11:40:44;;;;;;;7.60;3.30;;;;;;;;;;4983697;28;20045;-90
2022/03/23 11:43:11;;;;;;;1.48;1.10;;;;;;;;;;4978237;28;20568;-91
2022/03/23 11:45:38;;;;;;;5.45;2.95;;;;;;;;;;4964556;28;20038;-91
2022/03/23 11:48:26;;;;;;;8.13;3.90;;;;;;;;;;4972497;28;20069;-91
2022/03/23 11:51:10;;;;;;;1.38;1.10;;;;;;;;;;4986209;28;20104;-90
2022/03/23 11:53:39;;;;;;;3.03;1.73;;;;;;;;;;4979758;28;20045;-90
2022/03/23 11:56:06;;;;;;;2.40;1.45;;;;;;;;;;4980144;28;20049;-91
2022/03/23 11:58:39;;;;;;;8.75;3.40;;;;;;;;;;4951584;28;20074;-90
2022/03/23 12:01:12;;;;;;;1.35;0.85;;;;;;;;;;4967964;28;20042;-91
2022/03/23 12:03:41;;;;;;;4.10;2.15;;;;;;;;;;4965731;28;20038;-91
2022/03/23 12:06:11;;;;;;;1.85;1.02;;;;;;;;;;4987503;28;20078;-92
2022/03/23 12:08:50;;;;;;;6.25;2.40;;;;;;;;;;4971692;28;20483;-89
2022/03/23 12:11:31;;;;;;;0.40;0.40;;;;;;;;;;4970802;28;20042;-91
2022/03/23 12:13:59;;;;;;;0.13;0.13;;;;;;;;;;4988324;28;20659;-92
2022/03/23 12:16:52;;;;;;;0.38;0.32;;;;;;;;;;4984484;28;20177;-87
2022/03/23 12:19:19;;;;;;;9.55;4.90;;;;;;;;;;4968260;28;20117;-91
2022/03/23 12:21:54;;;;;;;2.45;2.22;;;;;;;;;;4976053;28;20051;-91
2022/03/23 12:24:28;;;;;;;2.72;2.00;;;;;;;;;;4986035;28;20045;-90
2022/03/23 12:26:57;;;;;;;4.13;2.47;;;;;;;;;;4982959;28;20051;-91
2022/03/23 12:29:28;;;;;;;3.72;0.85;;;;;;;;;;4987878;28;20046;-89
2022/03/23 12:32:06;;;;;;;7.78;2.70;;;;;;;;;;4979073;28;20078;-91
2022/03/23 12:34:36;;;;;;;4.90;2.45;;;;;;;;;;4985783;28;20098;-92
2022/03/23 12:37:10;;;;;;;9.77;1.98;;;;;;;;;;4968719;28;20043;-93
2022/03/23 12:39:41;;;;;;;0.47;0.47;;;;;;;;;;4971106;28;20070;-91
2022/03/23 12:42:16;;;;;;;1.77;1.67;;;;;;;;;;4980554;28;20511;-92
2022/03/23 12:44:43;;;;;;;3.97;1.90;;;;;;;;;;4979849;28;20031;-92
2022/03/23 12:47:12;;;;;;;2.97;1.40;;;;;;;;;;4988083;28;20046;-91
2022/03/23 12:58:42;;;;;;;1.55;1.20;;;;;;;;;;4997208;28;20046;-94
2022/03/23 13:01:15;;;;;;;3.72;2.05;;;;;;;;;;4997039;28;20052;-95
2022/03/23 13:03:41;;;;;;;2.08;1.58;;;;;;;;;;4995623;28;20050;-96
2022/03/23 13:06:14;;;;;;;2.45;2.25;;;;;;;;;;4997042;28;20038;-95
2022/03/23 13:08:52;;;;;;;3.65;2.30;;;;;;;;;;4995257;28;20046;-94
2022/03/23 13:11:32;;;;;;;3.45;2.08;;;;;;;;;;4991065;28;20062;-95
2022/03/23 13:14:02;;;;;;;0.30;0.30;;;;;;;;;;4982781;28;20089;-94
2022/03/23 13:16:42;;;;;;;3.60;1.95;;;;;;;;;;5012116;28;20054;-94
2022/03/23 13:19:13;;;;;;;2.35;1.48;;;;;;;;;;5013948;28;20050;-94
2022/03/23 13:21:39;;;;;;;3.00;1.80;;;;;;;;;;4992905;28;20034;-96
2022/03/23 13:24:12;;;;;;;1.17;0.85;;;;;;;;;;4981415;28;20068;-92
2022/03/23 13:26:41;;;;;;;11.93;1.33;;;;;;;;;;4991017;28;20046;-93
2022/03/23 13:29:15;;;;;;;1.08;0.55;;;;;;;;;;4981609;28;20033;-96
2022/03/23 13:31:42;;;;;;;2.45;0.88;;;;;;;;;;4976793;28;20034;-96
2022/03/23 13:34:14;;;;;;;2.17;1.60;;;;;;;;;;4979317;28;20092;-95
2022/03/23 13:36:45;;;;;;;12.57;3.00;;;;;;;;;;4991541;28;20051;-95
2022/03/23 13:39:14;;;;;;;2.85;1.85;;;;;;;;;;4988218;28;20062;-96
2022/03/23 13:47:30;;;;;;;3.15;1.95;;;;;;;;;;4987529;28;20093;-96
2022/03/23 13:50:00;;;;;;;0.88;0.75;;;;;;;;;;4959387;28;20051;-96
2022/03/23 13:52:43;;;;;;;6.82;1.75;;;;;;;;;;4987517;28;20053;-96
2022/03/23 13:55:16;;;;;;;3.90;1.63;;;;;;;;;;4995493;28;20074;-96
2022/03/23 13:57:54;;;;;;;16.40;4.70;;;;;;;;;;4991270;28;20043;-96
2022/03/23 14:00:25;;;;;;;1.00;0.93;;;;;;;;;;4997577;28;20026;-96
2022/03/23 14:02:52;;;;;;;3.33;1.58;;;;;;;;;;5006948;28;20047;-96
2022/03/23 14:05:30;;;;;;;4.20;0.80;;;;;;;;;;5000828;28;20074;-96
2022/03/23 14:08:00;;;;;;;2.60;1.17;;;;;;;;;;5007431;28;20046;-96
2022/03/23 14:10:32;;;;;;;0.00;0.00;;;;;;;;;;4994636;28;20038;-95
2022/03/23 14:13:02;;;;;;;2.25;1.02;;;;;;;;;;4981780;28;20081;-96
2022/03/23 14:15:29;;;;;;;3.78;1.65;;;;;;;;;;4994228;28;20038;-96
2022/03/23 14:17:58;;;;;;;4.38;2.15;;;;;;;;;;4976130;28;20078;-96
2022/03/23 14:20:25;;;;;;;2.03;1.38;;;;;;;;;;4967901;28;20090;-95
2022/03/23 14:22:53;;;;;;;1.67;1.10;;;;;;;;;;4995813;28;20153;-96
2022/03/23 14:25:20;;;;;;;0.20;0.20;;;;;;;;;;4989035;28;20038;-96
2022/03/23 14:27:49;;;;;;;2.78;1.52;;;;;;;;;;4983505;28;20404;-96
2022/03/23 14:30:19;;;;;;;4.82;2.67;;;;;;;;;;4991179;28;20046;-96
2022/03/23 14:32:52;;;;;;;3.80;2.03;;;;;;;;;;4994395;28;20061;-96
2022/03/23 14:35:19;;;;;;;4.93;4.47;;;;;;;;;;4993346;28;20038;-96
2022/03/23 14:37:47;;;;;;;16.27;4.47;;;;;;;;;;4989500;28;20051;-95
2022/03/23 14:40:22;;;;;;;0.98;0.88;;;;;;;;;;4992530;28;20096;-95
2022/03/23 14:42:51;;;;;;;1.98;1.35;;;;;;;;;;4994182;28;20050;-96
2022/03/23 14:45:48;;;;;;;4.40;1.35;;;;;;;;;;4998184;28;20042;-95
2022/03/23 14:48:53;;;;;;;1.98;1.27;;;;;;;;;;4990419;28;20087;-96
2022/03/23 14:51:28;;;;;;;2.07;1.53;;;;;;;;;;4998906;28;20129;-95
2022/03/23 14:54:09;;;;;;;1.30;0.95;;;;;;;;;;5003232;28;20069;-96
2022/03/23 14:56:43;;;;;;;1.05;0.88;;;;;;;;;;4972254;28;20039;-92
2022/03/23 14:59:14;;;;;;;29.50;2.28;;;;;;;;;;4998535;28;20102;-96
2022/03/23 15:01:41;;;;;;;1.50;0.98;;;;;;;;;;4976515;28;20038;-95
2022/03/23 15:04:07;;;;;;;7.57;2.55;;;;;;;;;;4973891;28;20046;-96
2022/03/23 15:14:51;;;;;;;16.15;3.15;;;;;;;;;;4991088;28;20052;-95
2022/03/23 15:17:18;;;;;;;13.82;2.60;;;;;;;;;;4991968;28;20046;-96
2022/03/23 15:19:45;;;;;;;1.25;0.77;;;;;;;;;;4981735;28;20046;-94
2022/03/23 15:22:21;;;;;;;7.63;3.47;;;;;;;;;;5012167;28;20030;-96
2022/03/23 15:24:47;;;;;;;2.58;1.27;;;;;;;;;;4968829;28;20042;-95
2022/03/23 15:27:14;;;;;;;9.75;3.03;;;;;;;;;;4997259;28;20048;-94
2022/03/23 15:29:42;;;;;;;2.30;1.08;;;;;;;;;;4964699;28;20062;-95
2022/03/23 15:32:17;;;;;;;0.77;0.43;;;;;;;;;;5012077;28;20098;-95
2022/03/23 15:34:43;;;;;;;0.32;0.32;;;;;;;;;;4996265;28;20049;-96